sensor_id;sensor_type;location;lat;lon;timestamp;pressure;altitude;pressure_sealevel;temperature;humidity
72336;BME280;65062;48.446;8.834;2023-07-13T00:01:00;97556.78;;;17.87;87.99
72336;BME280;65062;48.446;8.834;2023-07-13T00:04:00;97559.19;;;17.77;87.25
72336;BME280;65062;48.446;8.834;2023-07-13T00:07:01;97559.06;;;17.72;89.13
72336;BME280;65062;48.446;8.834;2023-07-13T00:10:03;97553.22;;;17.70;88.46
72336;BME280;65062;48.446;8.834;2023-07-13T00:13:03;97556.84;;;17.58;89.29
72336;BME280;65062;48.446;8.834;2023-07-13T00:16:04;97542.16;;;17.62;89.49
72336;BME280;65062;48.446;8.834;2023-07-13T00:19:05;97539.69;;;17.49;90.05
72336;BME280;65062;48.446;8.834;2023-07-13T00:22:06;97538.47;;;17.74;89.64
72336;BME280;65062;48.446;8.834;2023-07-13T00:25:08;97547.69;;;17.72;89.46
72336;BME280;65062;48.446;8.834;2023-07-13T00:28:08;97547.69;;;17.60;88.73
72336;BME280;65062;48.446;8.834;2023-07-13T00:31:10;97548.44;;;17.49;89.12
72336;BME280;65062;48.446;8.834;2023-07-13T00:34:11;97550.00;;;17.39;89.65
72336;BME280;65062;48.446;8.834;2023-07-13T00:37:12;97552.53;;;17.34;90.41
72336;BME280;65062;48.446;8.834;2023-07-13T00:40:17;97549.78;;;17.40;90.56
72336;BME280;65062;48.446;8.834;2023-07-13T00:43:20;97548.19;;;17.39;90.65
72336;BME280;65062;48.446;8.834;2023-07-13T00:46:30;97544.22;;;17.30;90.82
72336;BME280;65062;48.446;8.834;2023-07-13T00:49:33;97555.53;;;17.37;89.52
72336;BME280;65062;48.446;8.834;2023-07-13T00:52:38;97549.00;;;17.40;89.53
72336;BME280;65062;48.446;8.834;2023-07-13T00:55:42;97552.41;;;17.29;89.87
72336;BME280;65062;48.446;8.834;2023-07-13T00:58:42;97548.16;;;17.28;90.06
72336;BME280;65062;48.446;8.834;2023-07-13T01:01:43;97540.75;;;17.18;91.79
72336;BME280;65062;48.446;8.834;2023-07-13T01:04:43;97548.66;;;17.07;91.86
72336;BME280;65062;48.446;8.834;2023-07-13T01:07:44;97560.81;;;17.08;91.32
72336;BME280;65062;48.446;8.834;2023-07-13T01:10:56;97546.94;;;17.12;92.55
72336;BME280;65062;48.446;8.834;2023-07-13T01:13:57;97549.25;;;17.09;92.75
72336;BME280;65062;48.446;8.834;2023-07-13T01:16:58;97546.94;;;17.12;91.88
72336;BME280;65062;48.446;8.834;2023-07-13T01:20:00;97552.81;;;17.14;91.96
72336;BME280;65062;48.446;8.834;2023-07-13T01:23:01;97547.16;;;17.11;91.63
72336;BME280;65062;48.446;8.834;2023-07-13T01:26:01;97547.50;;;17.03;91.51
72336;BME280;65062;48.446;8.834;2023-07-13T01:29:02;97553.56;;;17.03;90.91
72336;BME280;65062;48.446;8.834;2023-07-13T01:32:03;97556.88;;;16.99;90.62
72336;BME280;65062;48.446;8.834;2023-07-13T01:35:03;97564.19;;;16.85;88.68
72336;BME280;65062;48.446;8.834;2023-07-13T01:38:05;97561.19;;;16.63;89.39
72336;BME280;65062;48.446;8.834;2023-07-13T01:41:05;97555.34;;;16.43;90.65
72336;BME280;65062;48.446;8.834;2023-07-13T01:44:06;97550.09;;;16.37;92.07
72336;BME280;65062;48.446;8.834;2023-07-13T01:47:06;97561.09;;;16.34;92.29
72336;BME280;65062;48.446;8.834;2023-07-13T01:50:07;97561.00;;;16.22;94.08
72336;BME280;65062;48.446;8.834;2023-07-13T01:53:08;97562.75;;;16.10;95.21
72336;BME280;65062;48.446;8.834;2023-07-13T01:56:08;97563.97;;;16.14;95.33
72336;BME280;65062;48.446;8.834;2023-07-13T01:59:09;97566.28;;;16.04;94.32
72336;BME280;65062;48.446;8.834;2023-07-13T02:02:10;97556.38;;;16.00;95.41
72336;BME280;65062;48.446;8.834;2023-07-13T02:05:11;97568.25;;;16.09;93.40
72336;BME280;65062;48.446;8.834;2023-07-13T02:08:11;97568.16;;;15.97;93.80
72336;BME280;65062;48.446;8.834;2023-07-13T02:11:12;97567.00;;;15.93;93.24
72336;BME280;65062;48.446;8.834;2023-07-13T02:14:12;97579.28;;;15.81;93.40
72336;BME280;65062;48.446;8.834;2023-07-13T02:17:14;97572.41;;;15.80;94.12
72336;BME280;65062;48.446;8.834;2023-07-13T02:20:14;97575.50;;;15.71;94.54
72336;BME280;65062;48.446;8.834;2023-07-13T02:23:14;97589.69;;;15.76;93.19
72336;BME280;65062;48.446;8.834;2023-07-13T02:26:15;97588.81;;;15.58;92.81
72336;BME280;65062;48.446;8.834;2023-07-13T02:29:15;97587.22;;;15.50;94.95
72336;BME280;65062;48.446;8.834;2023-07-13T02:32:15;97595.63;;;15.41;93.25
72336;BME280;65062;48.446;8.834;2023-07-13T02:35:16;97591.97;;;15.42;95.48
72336;BME280;65062;48.446;8.834;2023-07-13T02:38:16;97596.41;;;15.41;96.29
72336;BME280;65062;48.446;8.834;2023-07-13T02:41:17;97588.47;;;15.48;95.17
72336;BME280;65062;48.446;8.834;2023-07-13T02:44:17;97592.59;;;15.37;95.05
72336;BME280;65062;48.446;8.834;2023-07-13T02:47:17;97588.78;;;15.27;95.61
72336;BME280;65062;48.446;8.834;2023-07-13T02:50:18;97595.72;;;15.21;95.29
72336;BME280;65062;48.446;8.834;2023-07-13T02:53:18;97595.72;;;15.21;95.60
72336;BME280;65062;48.446;8.834;2023-07-13T02:56:23;97594.69;;;15.22;95.64
72336;BME280;65062;48.446;8.834;2023-07-13T02:59:24;97589.66;;;15.14;95.93
72336;BME280;65062;48.446;8.834;2023-07-13T03:02:24;97593.69;;;15.17;96.29
72336;BME280;65062;48.446;8.834;2023-07-13T03:05:25;97591.81;;;15.24;94.78
72336;BME280;65062;48.446;8.834;2023-07-13T03:08:26;97593.28;;;15.20;94.70
72336;BME280;65062;48.446;8.834;2023-07-13T03:11:26;97591.06;;;15.17;95.75
72336;BME280;65062;48.446;8.834;2023-07-13T03:14:27;97587.41;;;15.18;95.08
72336;BME280;65062;48.446;8.834;2023-07-13T03:17:27;97577.84;;;15.23;95.73
72336;BME280;65062;48.446;8.834;2023-07-13T03:20:28;97583.59;;;15.14;94.97
72336;BME280;65062;48.446;8.834;2023-07-13T03:23:28;97584.09;;;15.29;93.84
72336;BME280;65062;48.446;8.834;2023-07-13T03:26:29;97581.72;;;15.21;96.10
72336;BME280;65062;48.446;8.834;2023-07-13T03:29:29;97584.00;;;15.11;95.34
72336;BME280;65062;48.446;8.834;2023-07-13T03:32:29;97594.72;;;15.16;95.91
72336;BME280;65062;48.446;8.834;2023-07-13T03:35:30;97591.81;;;15.24;93.91
72336;BME280;65062;48.446;8.834;2023-07-13T03:38:30;97593.63;;;15.30;94.03
72336;BME280;65062;48.446;8.834;2023-07-13T03:41:31;97594.88;;;15.21;94.64
72336;BME280;65062;48.446;8.834;2023-07-13T03:44:31;97606.38;;;15.33;94.55
72336;BME280;65062;48.446;8.834;2023-07-13T03:47:32;97603.22;;;15.18;94.87
72336;BME280;65062;48.446;8.834;2023-07-13T03:50:32;97603.81;;;15.20;93.28
72336;BME280;65062;48.446;8.834;2023-07-13T03:53:33;97609.44;;;15.30;94.67
72336;BME280;65062;48.446;8.834;2023-07-13T03:56:33;97620.69;;;15.19;94.15
72336;BME280;65062;48.446;8.834;2023-07-13T03:59:34;97617.31;;;15.36;94.27
72336;BME280;65062;48.446;8.834;2023-07-13T04:02:34;97614.91;;;15.35;94.18
72336;BME280;65062;48.446;8.834;2023-07-13T04:05:35;97621.66;;;15.24;92.97
72336;BME280;65062;48.446;8.834;2023-07-13T04:08:36;97628.78;;;15.17;92.98
72336;BME280;65062;48.446;8.834;2023-07-13T04:11:37;97631.09;;;15.07;94.01
72336;BME280;65062;48.446;8.834;2023-07-13T04:14:37;97623.97;;;15.08;94.44
72336;BME280;65062;48.446;8.834;2023-07-13T04:17:37;97625.41;;;15.04;94.95
72336;BME280;65062;48.446;8.834;2023-07-13T04:20:38;97620.56;;;15.01;93.72
72336;BME280;65062;48.446;8.834;2023-07-13T04:23:39;97610.63;;;15.03;94.99
72336;BME280;65062;48.446;8.834;2023-07-13T04:26:39;97621.88;;;15.23;94.32
72336;BME280;65062;48.446;8.834;2023-07-13T04:29:40;97617.00;;;15.26;93.50
72336;BME280;65062;48.446;8.834;2023-07-13T04:32:40;97622.84;;;15.28;94.25
72336;BME280;65062;48.446;8.834;2023-07-13T04:35:40;97622.63;;;15.30;93.26
72336;BME280;65062;48.446;8.834;2023-07-13T04:38:41;97627.97;;;15.23;93.70
72336;BME280;65062;48.446;8.834;2023-07-13T04:41:41;97635.31;;;15.15;93.88
72336;BME280;65062;48.446;8.834;2023-07-13T04:44:41;97635.09;;;15.16;94.16
72336;BME280;65062;48.446;8.834;2023-07-13T04:47:42;97644.41;;;15.19;93.85
72336;BME280;65062;48.446;8.834;2023-07-13T04:50:42;97633.84;;;15.19;93.97
72336;BME280;65062;48.446;8.834;2023-07-13T04:53:43;97638.66;;;15.28;94.45
72336;BME280;65062;48.446;8.834;2023-07-13T04:56:43;97634.78;;;15.37;94.31
72336;BME280;65062;48.446;8.834;2023-07-13T04:59:44;97643.22;;;15.52;94.40
72336;BME280;65062;48.446;8.834;2023-07-13T05:02:44;97647.16;;;15.68;92.52
72336;BME280;65062;48.446;8.834;2023-07-13T05:06:03;97655.34;;;15.91;89.33
72336;BME280;65062;48.446;8.834;2023-07-13T05:09:04;97656.50;;;16.01;88.77
72336;BME280;65062;48.446;8.834;2023-07-13T05:12:05;97660.09;;;16.07;88.52
72336;BME280;65062;48.446;8.834;2023-07-13T05:15:06;97670.97;;;16.17;87.74
72336;BME280;65062;48.446;8.834;2023-07-13T05:18:07;97676.00;;;16.25;88.44
72336;BME280;65062;48.446;8.834;2023-07-13T05:21:09;97674.34;;;16.24;89.19
72336;BME280;65062;48.446;8.834;2023-07-13T05:24:10;97673.41;;;16.18;90.29
72336;BME280;65062;48.446;8.834;2023-07-13T05:27:11;97676.00;;;16.25;90.33
72336;BME280;65062;48.446;8.834;2023-07-13T05:30:11;97683.91;;;16.49;88.72
72336;BME280;65062;48.446;8.834;2023-07-13T05:33:12;97688.38;;;16.49;87.72
72336;BME280;65062;48.446;8.834;2023-07-13T05:36:13;97683.84;;;16.56;87.71
72336;BME280;65062;48.446;8.834;2023-07-13T05:39:13;97677.69;;;16.62;86.49
72336;BME280;65062;48.446;8.834;2023-07-13T05:42:14;97687.13;;;16.76;85.49
72336;BME280;65062;48.446;8.834;2023-07-13T05:45:14;97688.66;;;16.84;85.19
72336;BME280;65062;48.446;8.834;2023-07-13T05:48:15;97702.78;;;16.96;83.65
72336;BME280;65062;48.446;8.834;2023-07-13T05:51:15;97699.31;;;17.13;82.83
72336;BME280;65062;48.446;8.834;2023-07-13T05:54:16;97702.19;;;17.41;83.78
72336;BME280;65062;48.446;8.834;2023-07-13T05:57:16;97694.59;;;17.51;83.21
72336;BME280;65062;48.446;8.834;2023-07-13T06:00:17;97696.91;;;17.59;83.07
72336;BME280;65062;48.446;8.834;2023-07-13T06:03:17;97700.41;;;17.71;82.17
72336;BME280;65062;48.446;8.834;2023-07-13T06:06:17;97693.38;;;17.65;81.77
72336;BME280;65062;48.446;8.834;2023-07-13T06:09:18;97697.09;;;17.76;82.69
72336;BME280;65062;48.446;8.834;2023-07-13T06:12:18;97696.16;;;17.70;81.37
72336;BME280;65062;48.446;8.834;2023-07-13T06:15:19;97696.41;;;17.80;81.62
72336;BME280;65062;48.446;8.834;2023-07-13T06:18:19;97697.00;;;17.82;81.44
72336;BME280;65062;48.446;8.834;2023-07-13T06:21:21;97702.84;;;17.73;80.39
72336;BME280;65062;48.446;8.834;2023-07-13T06:24:21;97712.59;;;17.72;79.68
72336;BME280;65062;48.446;8.834;2023-07-13T06:27:22;97719.97;;;17.70;81.26
72336;BME280;65062;48.446;8.834;2023-07-13T06:30:22;97719.66;;;17.78;82.26
72336;BME280;65062;48.446;8.834;2023-07-13T06:33:23;97714.94;;;17.80;82.34
72336;BME280;65062;48.446;8.834;2023-07-13T06:36:23;97717.00;;;17.78;81.60
72336;BME280;65062;48.446;8.834;2023-07-13T06:39:23;97721.34;;;18.02;80.70
72336;BME280;65062;48.446;8.834;2023-07-13T06:42:24;97717.38;;;18.23;80.19
72336;BME280;65062;48.446;8.834;2023-07-13T06:45:24;97717.78;;;18.49;80.07
72336;BME280;65062;48.446;8.834;2023-07-13T06:48:25;97715.81;;;18.68;77.06
72336;BME280;65062;48.446;8.834;2023-07-13T06:51:25;97720.53;;;18.78;76.40
72336;BME280;65062;48.446;8.834;2023-07-13T06:54:26;97716.38;;;18.82;76.22
72336;BME280;65062;48.446;8.834;2023-07-13T06:57:26;97721.09;;;18.80;75.03
72336;BME280;65062;48.446;8.834;2023-07-13T07:00:27;97719.97;;;18.76;73.28
72336;BME280;65062;48.446;8.834;2023-07-13T07:03:28;97718.91;;;18.77;73.67
72336;BME280;65062;48.446;8.834;2023-07-13T07:06:28;97725.50;;;18.74;71.70
72336;BME280;65062;48.446;8.834;2023-07-13T07:09:29;97723.19;;;18.78;72.20
72336;BME280;65062;48.446;8.834;2023-07-13T07:12:31;97724.69;;;18.74;65.29
72336;BME280;65062;48.446;8.834;2023-07-13T07:15:31;97720.09;;;18.69;63.45
72336;BME280;65062;48.446;8.834;2023-07-13T07:18:32;97717.44;;;18.69;60.83
72336;BME280;65062;48.446;8.834;2023-07-13T07:21:32;97715.34;;;18.94;56.70
72336;BME280;65062;48.446;8.834;2023-07-13T07:24:33;97703.41;;;19.20;56.29
72336;BME280;65062;48.446;8.834;2023-07-13T07:27:39;97712.63;;;19.40;52.10
72336;BME280;65062;48.446;8.834;2023-07-13T07:30:42;97714.03;;;19.59;50.35
72336;BME280;65062;48.446;8.834;2023-07-13T07:33:43;97713.91;;;19.66;51.97
72336;BME280;65062;48.446;8.834;2023-07-13T07:36:43;97721.41;;;19.69;52.03
72336;BME280;65062;48.446;8.834;2023-07-13T07:39:44;97716.41;;;19.72;50.97
72336;BME280;65062;48.446;8.834;2023-07-13T07:42:45;97717.56;;;19.76;54.61
72336;BME280;65062;48.446;8.834;2023-07-13T07:45:45;97727.97;;;19.94;51.54
72336;BME280;65062;48.446;8.834;2023-07-13T07:48:46;97725.34;;;20.11;51.98
72336;BME280;65062;48.446;8.834;2023-07-13T07:51:46;97724.78;;;20.20;50.53
72336;BME280;65062;48.446;8.834;2023-07-13T07:54:47;97725.81;;;20.36;49.40
72336;BME280;65062;48.446;8.834;2023-07-13T07:57:48;97732.34;;;20.45;49.02
72336;BME280;65062;48.446;8.834;2023-07-13T08:00:48;97732.72;;;20.37;47.47
72336;BME280;65062;48.446;8.834;2023-07-13T08:03:48;97728.28;;;20.59;47.19
72336;BME280;65062;48.446;8.834;2023-07-13T08:06:49;97732.16;;;20.68;45.18
72336;BME280;65062;48.446;8.834;2023-07-13T08:09:52;97732.41;;;20.83;48.29
72336;BME280;65062;48.446;8.834;2023-07-13T08:12:52;97727.16;;;20.88;45.75
72336;BME280;65062;48.446;8.834;2023-07-13T08:15:53;97724.34;;;20.95;47.48
72336;BME280;65062;48.446;8.834;2023-07-13T08:18:53;97725.03;;;21.07;45.48
72336;BME280;65062;48.446;8.834;2023-07-13T08:21:54;97720.66;;;21.17;46.83
72336;BME280;65062;48.446;8.834;2023-07-13T08:24:54;97723.91;;;21.19;46.49
72336;BME280;65062;48.446;8.834;2023-07-13T08:27:57;97720.03;;;21.32;46.81
72336;BME280;65062;48.446;8.834;2023-07-13T08:31:02;97723.06;;;21.40;43.12
72336;BME280;65062;48.446;8.834;2023-07-13T08:34:03;97723.03;;;21.35;45.66
72336;BME280;65062;48.446;8.834;2023-07-13T08:37:04;97718.84;;;21.44;45.66
72336;BME280;65062;48.446;8.834;2023-07-13T08:40:05;97719.91;;;21.43;45.09
72336;BME280;65062;48.446;8.834;2023-07-13T08:43:11;97730.81;;;21.63;40.08
72336;BME280;65062;48.446;8.834;2023-07-13T08:46:35;97720.59;;;21.77;43.54
72336;BME280;65062;48.446;8.834;2023-07-13T08:49:36;97715.69;;;21.90;43.69
72336;BME280;65062;48.446;8.834;2023-07-13T08:52:39;97714.72;;;22.01;42.51
72336;BME280;65062;48.446;8.834;2023-07-13T08:55:40;97722.09;;;22.21;43.11
72336;BME280;65062;48.446;8.834;2023-07-13T08:58:41;97733.16;;;22.34;41.93
72336;BME280;65062;48.446;8.834;2023-07-13T09:04:53;97718.97;;;22.60;41.92
72336;BME280;65062;48.446;8.834;2023-07-13T09:17:49;97725.94;;;23.55;40.92
72336;BME280;65062;48.446;8.834;2023-07-13T09:20:54;97714.25;;;23.76;39.74
72336;BME280;65062;48.446;8.834;2023-07-13T09:24:01;97704.66;;;23.85;38.37
72336;BME280;65062;48.446;8.834;2023-07-13T09:27:02;97712.94;;;23.88;39.85
72336;BME280;65062;48.446;8.834;2023-07-13T09:33:13;97716.50;;;24.24;38.48
72336;BME280;65062;48.446;8.834;2023-07-13T09:36:33;97707.94;;;24.22;37.73
72336;BME280;65062;48.446;8.834;2023-07-13T09:39:39;97710.09;;;24.35;37.09
72336;BME280;65062;48.446;8.834;2023-07-13T09:42:41;97718.66;;;24.47;37.44
72336;BME280;65062;48.446;8.834;2023-07-13T09:45:45;97713.84;;;24.29;38.06
72336;BME280;65062;48.446;8.834;2023-07-13T09:48:46;97714.34;;;24.61;36.12
72336;BME280;65062;48.446;8.834;2023-07-13T09:51:46;97717.56;;;24.88;34.49
72336;BME280;65062;48.446;8.834;2023-07-13T09:54:49;97701.56;;;25.57;34.25
72336;BME280;65062;48.446;8.834;2023-07-13T09:57:49;97712.25;;;25.62;33.94
72336;BME280;65062;48.446;8.834;2023-07-13T10:01:02;97705.22;;;25.71;35.06
72336;BME280;65062;48.446;8.834;2023-07-13T10:04:12;97703.25;;;25.33;33.48
72336;BME280;65062;48.446;8.834;2023-07-13T10:07:13;97701.75;;;25.70;34.21
72336;BME280;65062;48.446;8.834;2023-07-13T10:10:19;97701.34;;;25.92;34.42
72336;BME280;65062;48.446;8.834;2023-07-13T10:13:28;97699.66;;;26.44;35.40
72336;BME280;65062;48.446;8.834;2023-07-13T10:16:32;97691.44;;;26.93;33.25
72336;BME280;65062;48.446;8.834;2023-07-13T10:19:35;97700.25;;;26.99;33.90
72336;BME280;65062;48.446;8.834;2023-07-13T10:23:04;97707.59;;;27.40;32.17
72336;BME280;65062;48.446;8.834;2023-07-13T10:26:13;97700.06;;;27.61;31.02
72336;BME280;65062;48.446;8.834;2023-07-13T10:29:17;97702.44;;;27.86;30.67
72336;BME280;65062;48.446;8.834;2023-07-13T10:32:21;97681.06;;;27.94;31.29
72336;BME280;65062;48.446;8.834;2023-07-13T10:35:22;97689.06;;;27.99;31.38
72336;BME280;65062;48.446;8.834;2023-07-13T10:38:24;97700.91;;;28.17;31.61
72336;BME280;65062;48.446;8.834;2023-07-13T10:41:29;97706.53;;;27.60;28.64
72336;BME280;65062;48.446;8.834;2023-07-13T10:44:33;97699.22;;;27.18;30.64
72336;BME280;65062;48.446;8.834;2023-07-13T10:47:33;97695.91;;;26.45;33.42
72336;BME280;65062;48.446;8.834;2023-07-13T10:50:35;97698.94;;;25.95;31.99
72336;BME280;65062;48.446;8.834;2023-07-13T10:53:38;97688.50;;;25.89;31.07
72336;BME280;65062;48.446;8.834;2023-07-13T10:56:43;97687.78;;;26.22;33.38
72336;BME280;65062;48.446;8.834;2023-07-13T10:59:49;97689.69;;;26.50;30.63
72336;BME280;65062;48.446;8.834;2023-07-13T11:03:14;97681.69;;;26.40;30.36
72336;BME280;65062;48.446;8.834;2023-07-13T11:06:29;97675.94;;;26.85;29.91
72336;BME280;65062;48.446;8.834;2023-07-13T11:09:37;97675.38;;;27.59;31.20
72336;BME280;65062;48.446;8.834;2023-07-13T11:15:48;97677.25;;;28.14;27.78
72336;BME280;65062;48.446;8.834;2023-07-13T11:18:50;97673.78;;;27.76;29.35
72336;BME280;65062;48.446;8.834;2023-07-13T11:25:32;97671.53;;;28.02;29.95
72336;BME280;65062;48.446;8.834;2023-07-13T11:28:41;97675.84;;;28.35;26.92
72336;BME280;65062;48.446;8.834;2023-07-13T11:31:42;97675.75;;;28.08;28.59
72336;BME280;65062;48.446;8.834;2023-07-13T11:34:44;97677.66;;;28.07;27.09
72336;BME280;65062;48.446;8.834;2023-07-13T11:37:45;97660.28;;;28.00;27.50
72336;BME280;65062;48.446;8.834;2023-07-13T11:40:48;97659.53;;;27.76;31.11
72336;BME280;65062;48.446;8.834;2023-07-13T11:43:49;97665.28;;;27.88;28.21
72336;BME280;65062;48.446;8.834;2023-07-13T11:46:56;97665.75;;;28.59;28.34
72336;BME280;65062;48.446;8.834;2023-07-13T11:49:57;97650.38;;;29.19;28.85
72336;BME280;65062;48.446;8.834;2023-07-13T11:52:58;97656.97;;;29.26;25.05
72336;BME280;65062;48.446;8.834;2023-07-13T11:56:00;97655.38;;;31.46;23.66
72336;BME280;65062;48.446;8.834;2023-07-13T11:59:05;97654.59;;;32.48;22.95
72336;BME280;65062;48.446;8.834;2023-07-13T12:05:25;97662.19;;;34.70;19.64
72336;BME280;65062;48.446;8.834;2023-07-13T12:08:25;97658.28;;;36.82;17.54
72336;BME280;65062;48.446;8.834;2023-07-13T12:11:27;97656.13;;;38.61;15.75
72336;BME280;65062;48.446;8.834;2023-07-13T12:14:27;97656.75;;;40.99;12.70
72336;BME280;65062;48.446;8.834;2023-07-13T12:17:28;97664.75;;;38.85;15.20
72336;BME280;65062;48.446;8.834;2023-07-13T12:20:35;97672.97;;;39.53;15.25
72336;BME280;65062;48.446;8.834;2023-07-13T12:23:37;97670.75;;;40.18;14.29
72336;BME280;65062;48.446;8.834;2023-07-13T12:26:38;97661.47;;;40.99;14.46
72336;BME280;65062;48.446;8.834;2023-07-13T12:29:38;97667.19;;;40.83;13.48
72336;BME280;65062;48.446;8.834;2023-07-13T12:32:39;97677.72;;;41.14;13.50
72336;BME280;65062;48.446;8.834;2023-07-13T12:35:49;97669.97;;;41.30;12.79
72336;BME280;65062;48.446;8.834;2023-07-13T12:38:52;97660.66;;;38.76;14.03
72336;BME280;65062;48.446;8.834;2023-07-13T12:41:53;97667.97;;;35.85;17.29
72336;BME280;65062;48.446;8.834;2023-07-13T12:44:56;97672.84;;;38.02;15.64
72336;BME280;65062;48.446;8.834;2023-07-13T12:48:03;97668.47;;;39.68;15.59
72336;BME280;65062;48.446;8.834;2023-07-13T12:51:10;97661.19;;;39.04;14.30
72336;BME280;65062;48.446;8.834;2023-07-13T12:54:18;97667.72;;;37.00;15.78
72336;BME280;65062;48.446;8.834;2023-07-13T12:57:19;97653.88;;;39.60;14.99
72336;BME280;65062;48.446;8.834;2023-07-13T13:00:29;97655.16;;;39.40;14.64
72336;BME280;65062;48.446;8.834;2023-07-13T13:03:35;97672.38;;;37.31;15.89
72336;BME280;65062;48.446;8.834;2023-07-13T13:06:37;97683.88;;;38.44;14.33
72336;BME280;65062;48.446;8.834;2023-07-13T13:09:37;97665.88;;;40.04;14.94
72336;BME280;65062;48.446;8.834;2023-07-13T13:12:37;97662.72;;;39.24;12.33
72336;BME280;65062;48.446;8.834;2023-07-13T13:15:38;97666.63;;;37.86;16.29
72336;BME280;65062;48.446;8.834;2023-07-13T13:18:38;97665.28;;;39.62;12.99
72336;BME280;65062;48.446;8.834;2023-07-13T13:21:39;97668.72;;;40.44;12.77
72336;BME280;65062;48.446;8.834;2023-07-13T13:24:39;97667.13;;;42.35;12.20
72336;BME280;65062;48.446;8.834;2023-07-13T13:27:42;97657.28;;;44.17;10.44
72336;BME280;65062;48.446;8.834;2023-07-13T13:30:44;97657.06;;;44.69;9.44
72336;BME280;65062;48.446;8.834;2023-07-13T13:33:45;97673.13;;;41.87;10.94
72336;BME280;65062;48.446;8.834;2023-07-13T13:36:48;97664.56;;;43.20;11.03
72336;BME280;65062;48.446;8.834;2023-07-13T13:39:49;97664.53;;;43.44;10.53
72336;BME280;65062;48.446;8.834;2023-07-13T13:42:50;97664.06;;;41.86;12.10
72336;BME280;65062;48.446;8.834;2023-07-13T13:45:53;97663.31;;;43.45;11.70
72336;BME280;65062;48.446;8.834;2023-07-13T13:48:55;97663.06;;;42.12;10.64
72336;BME280;65062;48.446;8.834;2023-07-13T13:51:57;97647.97;;;42.74;11.88
72336;BME280;65062;48.446;8.834;2023-07-13T13:54:57;97648.28;;;41.69;11.57
72336;BME280;65062;48.446;8.834;2023-07-13T13:57:57;97651.00;;;42.48;12.48
72336;BME280;65062;48.446;8.834;2023-07-13T14:00:58;97649.84;;;40.06;12.83
72336;BME280;65062;48.446;8.834;2023-07-13T14:03:58;97647.78;;;40.29;13.77
72336;BME280;65062;48.446;8.834;2023-07-13T14:06:59;97640.41;;;42.50;12.54
72336;BME280;65062;48.446;8.834;2023-07-13T14:10:00;97647.56;;;44.67;9.69
72336;BME280;65062;48.446;8.834;2023-07-13T14:13:00;97644.09;;;45.58;9.75
72336;BME280;65062;48.446;8.834;2023-07-13T14:16:00;97649.94;;;44.68;10.10
72336;BME280;65062;48.446;8.834;2023-07-13T14:19:01;97650.50;;;45.04;10.23
72336;BME280;65062;48.446;8.834;2023-07-13T14:22:01;97650.38;;;45.62;9.49
72336;BME280;65062;48.446;8.834;2023-07-13T14:25:02;97654.16;;;42.36;10.72
72336;BME280;65062;48.446;8.834;2023-07-13T14:28:16;97660.03;;;41.15;11.70
72336;BME280;65062;48.446;8.834;2023-07-13T14:31:21;97648.28;;;40.09;13.35
72336;BME280;65062;48.446;8.834;2023-07-13T14:34:22;97641.19;;;41.10;12.20
72336;BME280;65062;48.446;8.834;2023-07-13T14:37:23;97655.13;;;40.91;13.01
72336;BME280;65062;48.446;8.834;2023-07-13T14:40:28;97656.41;;;37.83;13.77
72336;BME280;65062;48.446;8.834;2023-07-13T14:43:29;97661.25;;;37.08;15.49
72336;BME280;65062;48.446;8.834;2023-07-13T14:46:33;97675.59;;;39.23;13.73
72336;BME280;65062;48.446;8.834;2023-07-13T14:49:42;97667.53;;;38.47;15.28
72336;BME280;65062;48.446;8.834;2023-07-13T14:52:44;97667.09;;;38.45;14.76
72336;BME280;65062;48.446;8.834;2023-07-13T14:55:45;97657.78;;;40.15;15.15
72336;BME280;65062;48.446;8.834;2023-07-13T14:58:45;97666.63;;;41.48;13.61
72336;BME280;65062;48.446;8.834;2023-07-13T15:01:47;97660.63;;;40.95;13.05
72336;BME280;65062;48.446;8.834;2023-07-13T15:04:48;97657.09;;;41.96;12.07
72336;BME280;65062;48.446;8.834;2023-07-13T15:07:49;97653.84;;;41.83;12.82
72336;BME280;65062;48.446;8.834;2023-07-13T15:10:49;97649.19;;;43.50;10.78
72336;BME280;65062;48.446;8.834;2023-07-13T15:13:50;97655.78;;;41.76;11.81
72336;BME280;65062;48.446;8.834;2023-07-13T15:16:53;97655.97;;;41.02;13.25
72336;BME280;65062;48.446;8.834;2023-07-13T15:19:54;97661.16;;;38.21;14.71
72336;BME280;65062;48.446;8.834;2023-07-13T15:22:56;97671.94;;;34.91;17.75
72336;BME280;65062;48.446;8.834;2023-07-13T15:25:56;97670.72;;;33.45;19.63
72336;BME280;65062;48.446;8.834;2023-07-13T15:28:57;97666.72;;;32.59;19.40
72336;BME280;65062;48.446;8.834;2023-07-13T15:31:57;97660.66;;;32.28;21.83
72336;BME280;65062;48.446;8.834;2023-07-13T15:34:57;97665.16;;;34.65;19.87
72336;BME280;65062;48.446;8.834;2023-07-13T15:37:58;97668.03;;;36.01;18.92
72336;BME280;65062;48.446;8.834;2023-07-13T15:40:58;97658.44;;;35.31;18.33
72336;BME280;65062;48.446;8.834;2023-07-13T15:43:59;97667.28;;;34.59;19.55
72336;BME280;65062;48.446;8.834;2023-07-13T15:47:01;97680.69;;;32.86;20.58
72336;BME280;65062;48.446;8.834;2023-07-13T15:50:03;97675.16;;;31.72;22.15
72336;BME280;65062;48.446;8.834;2023-07-13T15:53:03;97675.66;;;31.26;23.38
72336;BME280;65062;48.446;8.834;2023-07-13T15:56:20;97669.03;;;30.27;24.86
72336;BME280;65062;48.446;8.834;2023-07-13T15:59:22;97663.69;;;30.58;22.76
72336;BME280;65062;48.446;8.834;2023-07-13T16:02:22;97664.03;;;32.42;22.41
72336;BME280;65062;48.446;8.834;2023-07-13T16:05:23;97671.09;;;32.80;20.61
72336;BME280;65062;48.446;8.834;2023-07-13T16:08:27;97663.66;;;35.12;19.39
72336;BME280;65062;48.446;8.834;2023-07-13T16:11:32;97664.72;;;32.85;21.86
72336;BME280;65062;48.446;8.834;2023-07-13T16:14:33;97666.19;;;30.23;23.74
72336;BME280;65062;48.446;8.834;2023-07-13T16:17:34;97664.50;;;29.78;26.14
72336;BME280;65062;48.446;8.834;2023-07-13T16:20:34;97661.84;;;29.51;27.09
72336;BME280;65062;48.446;8.834;2023-07-13T16:23:35;97664.75;;;29.90;26.61
72336;BME280;65062;48.446;8.834;2023-07-13T16:26:37;97669.19;;;31.05;24.74
72336;BME280;65062;48.446;8.834;2023-07-13T16:29:42;97677.78;;;29.88;25.43